Time;durP1;ratioP1;P1;durP2;ratioP2;P2;SDS_P1;SDS_P2;PMS_P1;PMS_P2;Temp;Humidity;BMP_temperature;BMP_pressure;BME280_temperature;BME280_humidity;BME280_pressure;Samples;Min_cycle;Max_cycle;Signal;HPM_P1;HPM_P2
2022/04/26 03:36:10;;;;;;;12.13;4.50;;;;;;;7.50;100.00;101727.19;5024543;28;20037;-79
2022/04/26 03:38:43;;;;;;;13.20;4.05;;;;;;;7.47;100.00;101721.88;5016215;28;20799;-78
2022/04/26 03:41:12;;;;;;;22.40;3.70;;;;;;;7.46;100.00;101730.56;5024900;28;20049;-78
2022/04/26 03:43:40;;;;;;;14.73;4.68;;;;;;;7.44;100.00;101731.38;5006785;28;20732;-79
2022/04/26 03:46:09;;;;;;;8.77;3.67;;;;;;;7.44;100.00;101740.13;5029164;28;20413;-79
2022/04/26 03:48:38;;;;;;;11.27;3.25;;;;;;;7.44;100.00;101736.63;5006934;28;20618;-79
2022/04/26 03:51:06;;;;;;;14.80;3.58;;;;;;;7.41;100.00;101737.44;4988155;28;20037;-79
2022/04/26 03:53:35;;;;;;;15.43;3.53;;;;;;;7.40;100.00;101736.53;5015553;28;20266;-79
2022/04/26 03:56:04;;;;;;;8.13;3.35;;;;;;;7.42;100.00;101754.94;4996619;28;20052;-79
2022/04/26 03:58:34;;;;;;;12.80;3.85;;;;;;;7.39;100.00;101742.63;5010419;28;20037;-79
2022/04/26 04:01:02;;;;;;;13.15;3.72;;;;;;;7.39;100.00;101750.50;5035365;28;20045;-79
2022/04/26 04:03:31;;;;;;;13.82;3.55;;;;;;;7.39;100.00;101739.09;4991104;28;20044;-79
2022/04/26 04:05:59;;;;;;;9.07;3.85;;;;;;;7.39;100.00;101737.38;5030429;28;20375;-79
2022/04/26 04:08:27;;;;;;;9.93;3.58;;;;;;;7.40;100.00;101749.63;4997469;28;20049;-78
2022/04/26 04:10:56;;;;;;;13.70;3.80;;;;;;;7.39;100.00;101737.38;4981256;28;20036;-78
2022/04/26 04:13:24;;;;;;;11.07;3.80;;;;;;;7.39;100.00;101750.50;5038976;28;20045;-78
2022/04/26 04:15:53;;;;;;;7.80;3.00;;;;;;;7.40;100.00;101756.63;5019937;28;20048;-79
2022/04/26 04:21:08;;;;;;;10.93;3.22;;;;;;;7.41;100.00;101743.56;5002178;28;20033;-78
2022/04/26 04:23:40;;;;;;;9.98;3.38;;;;;;;7.41;100.00;101750.53;5003783;28;20052;-77
2022/04/26 04:26:08;;;;;;;12.50;3.95;;;;;;;7.42;100.00;101763.69;5016349;28;21695;-78
2022/04/26 04:28:37;;;;;;;11.25;3.75;;;;;;;7.42;100.00;101755.81;4973118;28;20045;-78
2022/04/26 04:31:05;;;;;;;8.85;3.50;;;;;;;7.44;100.00;101757.59;5013709;28;20045;-78
2022/04/26 04:33:34;;;;;;;7.93;4.15;;;;;;;7.45;100.00;101756.75;4976417;28;20064;-78
2022/04/26 04:36:03;;;;;;;12.07;3.47;;;;;;;7.46;100.00;101764.66;5046098;28;20529;-80
2022/04/26 04:38:32;;;;;;;12.63;3.67;;;;;;;7.48;100.00;101754.22;5020674;28;20053;-79
2022/04/26 04:41:00;;;;;;;11.20;3.10;;;;;;;7.49;100.00;101762.16;5035290;28;20053;-78
2022/04/26 04:43:29;;;;;;;12.23;3.40;;;;;;;7.53;100.00;101763.13;5026624;28;20041;-81
2022/04/26 04:45:57;;;;;;;10.32;3.75;;;;;;;7.68;100.00;101770.56;5009292;28;20042;-80
2022/04/26 04:48:26;;;;;;;15.70;3.90;;;;;;;7.79;100.00;101767.41;5015123;28;20516;-81
2022/04/26 04:50:55;;;;;;;8.95;3.22;;;;;;;8.04;100.00;101767.25;5004058;28;20471;-79
2022/04/26 04:53:23;;;;;;;10.45;3.30;;;;;;;8.19;100.00;101760.66;5031605;28;20058;-80
2022/04/26 04:55:52;;;;;;;9.82;3.45;;;;;;;8.27;100.00;101770.50;5026814;28;20259;-81
2022/04/26 04:58:20;;;;;;;8.07;3.58;;;;;;;8.25;100.00;101772.19;5021413;28;20041;-80
2022/04/26 05:00:49;;;;;;;8.43;3.10;;;;;;;8.26;100.00;101772.25;5026177;28;20048;-78
2022/04/26 05:03:18;;;;;;;7.90;3.38;;;;;;;8.28;100.00;101783.69;5017189;28;20465;-78
2022/04/26 05:05:46;;;;;;;10.80;3.30;;;;;;;8.26;100.00;101781.84;5003735;28;20056;-78
2022/04/26 05:08:15;;;;;;;6.35;3.22;;;;;;;8.23;100.00;101792.28;5042742;28;20053;-78
2022/04/26 05:10:43;;;;;;;8.32;2.97;;;;;;;8.18;100.00;101800.91;5017804;28;20045;-78
2022/04/26 05:13:11;;;;;;;7.60;3.30;;;;;;;8.12;100.00;101803.34;5009679;28;20057;-79
2022/04/26 05:15:44;;;;;;;7.45;3.13;;;;;;;8.09;100.00;101797.13;4998856;28;20159;-77
2022/04/26 05:18:13;;;;;;;8.23;3.85;;;;;;;8.06;100.00;101803.19;5020558;28;20405;-77
2022/04/26 05:20:43;;;;;;;5.78;3.30;;;;;;;8.05;100.00;101803.13;5000347;28;20241;-77
2022/04/26 05:25:59;;;;;;;7.30;3.38;;;;;;;8.10;100.00;101789.28;5026362;28;20029;-77
2022/04/26 05:28:27;;;;;;;8.77;3.30;;;;;;;8.16;100.00;101799.06;5012596;28;20608;-77
2022/04/26 05:30:56;;;;;;;13.77;3.47;;;;;;;8.16;100.00;101794.72;5006961;28;20516;-77
2022/04/26 05:33:27;;;;;;;11.38;3.40;;;;;;;8.17;100.00;101809.63;5011084;28;20037;-77
2022/04/26 05:35:55;;;;;;;12.80;4.05;;;;;;;8.16;100.00;101813.09;5025952;28;20059;-77
2022/04/26 05:38:24;;;;;;;7.85;2.90;;;;;;;8.12;100.00;101805.97;5028877;28;20075;-79
2022/04/26 05:40:53;;;;;;;11.18;2.92;;;;;;;8.10;100.00;101807.66;5023981;28;20056;-77
2022/04/26 05:43:21;;;;;;;8.05;2.90;;;;;;;8.06;100.00;101813.69;5019659;28;20065;-78
2022/04/26 05:45:49;;;;;;;19.10;3.97;;;;;;;8.04;100.00;101807.50;5013586;28;20025;-77
2022/04/26 05:48:18;;;;;;;11.32;3.45;;;;;;;8.02;100.00;101805.69;5018790;28;20045;-77
2022/04/26 05:50:47;;;;;;;9.70;3.20;;;;;;;7.98;100.00;101802.97;5040097;28;20037;-78
2022/04/26 05:53:15;;;;;;;11.50;3.15;;;;;;;7.99;100.00;101811.72;5007463;28;20057;-77
2022/04/26 05:55:43;;;;;;;8.63;2.90;;;;;;;7.98;100.00;101812.56;5022049;28;20060;-77
2022/04/26 05:58:12;;;;;;;8.55;3.10;;;;;;;7.98;100.00;101818.72;5021529;28;20060;-78
2022/04/26 06:00:41;;;;;;;10.68;2.90;;;;;;;8.02;100.00;101821.44;4991068;28;20051;-77
2022/04/26 06:03:10;;;;;;;7.45;3.15;;;;;;;8.00;100.00;101827.50;5009833;28;20049;-78
2022/04/26 06:05:39;;;;;;;8.82;3.00;;;;;;;8.00;100.00;101814.38;5019440;28;20245;-78
2022/04/26 06:08:09;;;;;;;9.75;3.15;;;;;;;8.07;100.00;101828.59;5003222;28;20048;-78
2022/04/26 06:10:39;;;;;;;6.78;2.50;;;;;;;8.14;100.00;101832.28;5025569;28;20171;-78
2022/04/26 06:13:10;;;;;;;9.88;2.85;;;;;;;8.20;100.00;101833.34;5018335;28;20045;-79
2022/04/26 06:15:39;;;;;;;8.77;2.90;;;;;;;8.34;100.00;101827.59;5033128;28;20036;-79
2022/04/26 06:18:07;;;;;;;6.47;2.90;;;;;;;8.52;100.00;101841.25;5013189;28;20044;-81
2022/04/26 06:20:36;;;;;;;7.40;2.58;;;;;;;8.64;100.00;101832.84;5018152;28;20445;-79
2022/04/26 06:23:04;;;;;;;7.18;2.47;;;;;;;8.70;100.00;101834.75;4993040;28;20056;-79
2022/04/26 06:25:36;;;;;;;6.82;2.97;;;;;;;8.76;100.00;101832.28;5011644;28;20045;-79
2022/04/26 06:28:07;;;;;;;12.20;2.85;;;;;;;8.88;100.00;101829.06;5005598;28;20056;-78
2022/04/26 06:30:37;;;;;;;11.35;2.47;;;;;;;8.95;100.00;101829.25;4993976;28;20049;-78
2022/04/26 06:33:06;;;;;;;11.00;2.65;;;;;;;8.95;100.00;101838.91;5036306;28;20048;-79
2022/04/26 06:35:42;;;;;;;8.50;2.55;;;;;;;8.92;100.00;101842.34;5008351;28;20068;-78
2022/04/26 06:38:10;;;;;;;5.45;2.45;;;;;;;8.85;100.00;101839.53;5018600;28;20061;-79
2022/04/26 06:40:38;;;;;;;5.53;2.63;;;;;;;8.85;100.00;101831.63;5003738;28;20535;-78
2022/04/26 06:43:09;;;;;;;7.47;2.30;;;;;;;8.88;100.00;101839.56;5034312;28;20047;-79
2022/04/26 06:45:37;;;;;;;6.05;2.72;;;;;;;8.92;100.00;101844.97;5021024;28;20381;-78
2022/04/26 06:48:08;;;;;;;6.05;2.63;;;;;;;8.93;100.00;101845.84;5019565;28;20505;-78
2022/04/26 06:50:37;;;;;;;6.55;2.00;;;;;;;8.91;100.00;101837.91;5029185;28;20041;-78
2022/04/26 06:53:06;;;;;;;7.88;2.88;;;;;;;9.05;100.00;101840.00;5028618;28;20033;-79
2022/04/26 06:55:36;;;;;;;6.95;2.40;;;;;;;9.12;100.00;101844.59;5005760;28;20033;-78
2022/04/26 06:58:08;;;;;;;12.43;2.65;;;;;;;9.24;100.00;101855.38;5006181;28;20068;-78
2022/04/26 07:00:37;;;;;;;9.48;2.95;;;;;;;9.27;100.00;101858.09;5000630;28;20045;-78
2022/04/26 07:03:05;;;;;;;4.90;2.20;;;;;;;9.26;100.00;101847.53;5007077;28;20045;-79
2022/04/26 07:05:34;;;;;;;6.15;2.47;;;;;;;9.27;100.00;101855.47;5001921;28;20397;-78
2022/04/26 07:08:03;;;;;;;9.60;2.72;;;;;;;9.40;100.00;101864.56;5011902;28;20049;-79
2022/04/26 07:10:31;;;;;;;11.18;2.70;;;;;;;9.63;100.00;101859.84;5011638;28;20535;-78
2022/04/26 07:13:00;;;;;;;8.15;2.58;;;;;;;9.87;100.00;101856.88;5041724;28;20045;-78
2022/04/26 07:15:28;;;;;;;6.05;2.70;;;;;;;9.94;100.00;101860.53;4981217;28;20265;-78
2022/04/26 07:17:57;;;;;;;6.30;2.88;;;;;;;10.00;100.00;101865.94;4988238;28;20036;-79
2022/04/26 07:20:30;;;;;;;7.78;2.65;;;;;;;10.20;100.00;101860.22;5001355;28;20052;-79
2022/04/26 07:22:58;;;;;;;7.32;3.38;;;;;;;10.46;100.00;101860.78;5027227;28;20049;-79
2022/04/26 07:25:26;;;;;;;10.98;2.53;;;;;;;10.67;100.00;101869.09;4988408;28;21362;-78
2022/04/26 07:27:55;;;;;;;5.40;1.90;;;;;;;10.60;100.00;101869.81;5005451;28;20045;-79
2022/04/26 07:30:34;;;;;;;5.60;2.53;;;;;;;10.56;100.00;101869.75;4977048;28;20042;-78
2022/04/26 07:35:54;;;;;;;6.68;2.28;;;;;;;10.69;100.00;101874.41;5013588;28;20041;-79
2022/04/26 07:38:22;;;;;;;6.70;2.50;;;;;;;10.77;100.00;101872.78;5038534;28;20175;-78
2022/04/26 07:40:50;;;;;;;7.82;2.35;;;;;;;10.78;99.09;101879.84;5004559;28;20053;-78
2022/04/26 07:43:19;;;;;;;7.05;2.35;;;;;;;10.70;98.98;101871.81;4991587;28;20514;-78
2022/04/26 07:45:48;;;;;;;10.18;2.70;;;;;;;10.73;99.31;101871.84;4996963;28;20226;-80
2022/04/26 07:48:17;;;;;;;5.57;3.00;;;;;;;10.85;99.08;101881.75;5022724;28;20274;-79
2022/04/26 07:50:47;;;;;;;4.20;2.10;;;;;;;10.84;97.75;101890.50;5027387;28;20048;-79
2022/04/26 07:53:16;;;;;;;7.30;2.30;;;;;;;10.78;96.21;101877.22;5028541;28;20364;-78
2022/04/26 07:55:44;;;;;;;9.40;2.28;;;;;;;10.73;97.25;101882.38;5040128;28;20064;-78
2022/04/26 07:58:13;;;;;;;5.25;2.28;;;;;;;10.71;96.97;101884.09;4978027;28;20037;-78
2022/04/26 08:00:41;;;;;;;7.15;2.65;;;;;;;10.77;96.50;101895.63;5029098;28;20044;-78
2022/04/26 08:03:10;;;;;;;6.22;2.75;;;;;;;10.78;96.09;101885.13;4998360;28;20049;-79
2022/04/26 08:05:39;;;;;;;5.40;2.58;;;;;;;10.84;96.30;101887.88;5018683;28;20052;-78
2022/04/26 08:08:07;;;;;;;8.27;2.40;;;;;;;10.96;96.27;101894.22;5022003;28;20041;-78
2022/04/26 08:10:36;;;;;;;9.15;2.88;;;;;;;11.05;95.22;101899.66;5028176;28;20044;-78
2022/04/26 08:13:05;;;;;;;4.72;2.53;;;;;;;10.96;94.51;101904.78;5010823;28;20045;-79
2022/04/26 08:15:36;;;;;;;6.00;2.58;;;;;;;10.98;95.55;101898.66;5049290;28;20033;-78
2022/04/26 08:18:05;;;;;;;8.07;2.25;;;;;;;11.08;94.67;101911.16;5007108;28;20379;-79
2022/04/26 08:20:33;;;;;;;5.15;2.00;;;;;;;11.11;93.13;101907.69;5016958;28;20493;-78
2022/04/26 08:23:02;;;;;;;7.85;2.38;;;;;;;11.27;93.87;101914.13;4996172;28;20480;-79
2022/04/26 08:28:18;;;;;;;6.97;2.65;;;;;;;11.16;91.35;101920.97;4975532;28;20236;-78
2022/04/26 08:30:47;;;;;;;2.55;1.90;;;;;;;11.17;92.00;101921.00;5032045;28;20374;-78
2022/04/26 08:33:17;;;;;;;10.30;2.97;;;;;;;11.23;91.53;101914.97;5004123;28;20440;-79
2022/04/26 08:35:45;;;;;;;8.35;2.20;;;;;;;11.30;91.14;101928.28;5014092;28;20043;-79
2022/04/26 08:38:31;;;;;;;6.35;2.20;;;;;;;11.28;90.25;101924.69;5021755;28;20060;-79
2022/04/26 08:40:59;;;;;;;7.25;2.72;;;;;;;11.31;90.43;101932.69;5011927;28;20049;-79
2022/04/26 08:43:33;;;;;;;6.68;2.47;;;;;;;11.29;88.46;101933.53;4983137;28;20057;-78
2022/04/26 08:46:03;;;;;;;8.88;2.40;;;;;;;11.24;89.15;101933.44;4989766;28;20049;-79
2022/04/26 08:51:21;;;;;;;9.38;2.83;;;;;;;11.32;89.03;101945.03;5027523;28;20151;-79
2022/04/26 08:53:49;;;;;;;5.67;2.60;;;;;;;11.38;88.65;101938.97;5034968;28;20055;-78
2022/04/26 08:56:20;;;;;;;4.57;2.83;;;;;;;11.23;87.82;101947.50;5012866;28;20045;-78
2022/04/26 08:58:50;;;;;;;3.70;2.33;;;;;;;11.25;87.37;101936.97;5007240;28;20056;-78
2022/04/26 09:01:24;;;;;;;3.53;2.22;;;;;;;11.28;86.44;101939.66;4945519;28;20064;-78
2022/04/26 09:03:55;;;;;;;5.75;2.38;;;;;;;11.36;88.36;101951.25;5013998;28;20295;-78
2022/04/26 09:06:40;;;;;;;7.25;2.40;;;;;;;11.39;86.91;101951.28;5027996;28;20402;-78
2022/04/26 09:09:17;;;;;;;4.93;2.15;;;;;;;11.51;86.96;101956.78;4978656;28;20071;-78
2022/04/26 09:11:47;;;;;;;8.82;2.10;;;;;;;11.44;86.70;101949.63;5034743;28;20541;-78
2022/04/26 09:14:32;;;;;;;4.57;2.15;;;;;;;11.38;85.42;101951.25;5028796;28;20038;-78
2022/04/26 09:17:12;;;;;;;4.95;2.15;;;;;;;11.46;86.36;101945.25;5020944;28;20051;-78
2022/04/26 09:19:50;;;;;;;8.35;2.60;;;;;;;11.65;86.41;101957.00;5017546;28;20088;-79
2022/04/26 09:22:26;;;;;;;5.22;2.13;;;;;;;11.73;84.41;101965.06;5008601;28;20060;-78
2022/04/26 09:25:04;;;;;;;5.45;2.65;;;;;;;11.66;83.27;101958.81;5001802;28;20029;-78
2022/04/26 09:27:42;;;;;;;5.93;2.03;;;;;;;11.67;82.04;101957.91;5043725;28;20132;-79
2022/04/26 09:30:12;;;;;;;4.85;2.15;;;;;;;11.63;81.77;101965.78;5024280;28;20053;-79
2022/04/26 09:32:49;;;;;;;8.32;2.50;;;;;;;11.52;82.56;101973.50;5024199;28;20253;-79
2022/04/26 09:35:23;;;;;;;5.03;2.58;;;;;;;11.41;82.04;101961.88;5025505;28;20374;-80
2022/04/26 09:37:51;;;;;;;6.93;2.42;;;;;;;11.46;83.34;101970.78;5012406;28;20049;-79
2022/04/26 09:40:35;;;;;;;4.38;1.98;;;;;;;11.58;82.77;101972.72;5011779;28;20266;-79
2022/04/26 09:43:13;;;;;;;7.68;2.30;;;;;;;11.62;81.99;101975.44;5029808;28;20061;-79
2022/04/26 09:45:56;;;;;;;7.47;2.35;;;;;;;11.55;82.88;101970.94;5018659;28;20175;-79
2022/04/26 09:48:29;;;;;;;2.70;2.03;;;;;;;11.60;83.56;101985.06;4992954;28;20549;-79
2022/04/26 09:50:58;;;;;;;9.70;2.95;;;;;;;11.57;83.02;101969.19;5023307;28;20052;-80
2022/04/26 09:53:27;;;;;;;2.97;2.03;;;;;;;11.70;84.08;101973.81;4983454;28;20068;-78
2022/04/26 09:55:56;;;;;;;5.40;2.15;;;;;;;11.87;83.53;101973.19;5032317;28;20529;-78
2022/04/26 09:58:29;;;;;;;9.45;2.45;;;;;;;11.94;84.03;101974.22;5032522;28;20040;-79
2022/04/26 10:01:01;;;;;;;3.35;2.00;;;;;;;11.90;81.42;101984.72;4992494;28;20057;-78
2022/04/26 10:03:36;;;;;;;4.90;2.15;;;;;;;11.68;80.55;101987.84;5020148;28;20064;-78
2022/04/26 10:06:07;;;;;;;2.95;2.13;;;;;;;11.56;81.00;101977.09;5012428;28;20390;-78
2022/04/26 10:08:36;;;;;;;7.85;2.58;;;;;;;11.54;81.10;101982.34;4984182;28;20068;-78
2022/04/26 10:11:06;;;;;;;4.50;2.50;;;;;;;11.54;80.62;101979.69;5028178;28;20044;-79
2022/04/26 10:13:42;;;;;;;3.85;1.63;;;;;;;11.55;81.32;101976.22;5021359;28;20055;-78
2022/04/26 10:16:15;;;;;;;6.15;2.42;;;;;;;11.76;82.44;101983.59;5039387;28;20061;-79
2022/04/26 10:18:45;;;;;;;5.57;2.72;;;;;;;11.87;81.06;101989.94;5007463;28;20055;-78
2022/04/26 10:21:23;;;;;;;6.43;2.70;;;;;;;11.78;79.95;101986.28;5022491;28;20045;-79
2022/04/26 10:23:51;;;;;;;4.10;2.22;;;;;;;11.82;79.67;101985.47;4967204;28;20401;-78
2022/04/26 10:26:39;;;;;;;7.40;2.35;;;;;;;11.85;77.31;101986.41;5004526;28;20510;-78
2022/04/26 10:29:07;;;;;;;5.97;2.22;;;;;;;11.77;78.56;101988.00;5049740;28;20064;-78
2022/04/26 10:31:49;;;;;;;4.65;2.45;;;;;;;11.83;79.47;101988.13;5031358;28;20048;-78
2022/04/26 10:34:29;;;;;;;6.13;2.70;;;;;;;11.89;77.05;101992.63;5021887;28;20041;-78
2022/04/26 10:36:59;;;;;;;7.18;2.42;;;;;;;11.84;78.89;101989.00;5041009;28;20040;-78
2022/04/26 10:39:32;;;;;;;4.05;2.20;;;;;;;11.80;79.98;101997.75;4997159;28;20564;-77
2022/04/26 10:42:22;;;;;;;4.75;1.98;;;;;;;11.93;77.95;101994.47;5042747;28;20052;-77
2022/04/26 10:44:51;;;;;;;7.78;3.13;;;;;;;11.99;79.32;101980.47;5000317;28;20045;-78
2022/04/26 10:47:25;;;;;;;5.28;2.35;;;;;;;12.09;79.72;101993.81;4995201;28;20478;-77
2022/04/26 10:49:54;;;;;;;4.22;2.13;;;;;;;12.07;78.76;101987.63;5028092;28;20033;-78
2022/04/26 10:52:23;;;;;;;6.10;2.63;;;;;;;12.15;80.09;101989.50;5040890;28;20037;-78
2022/04/26 10:54:55;;;;;;;6.47;2.10;;;;;;;12.35;80.15;101992.44;5023127;28;20037;-78
2022/04/26 10:57:26;;;;;;;5.57;2.35;;;;;;;12.46;79.63;101991.72;4986876;28;20277;-78
2022/04/26 11:00:07;;;;;;;6.82;2.35;;;;;;;12.61;75.88;101984.88;5036341;28;20056;-78
2022/04/26 11:02:46;;;;;;;10.40;2.20;;;;;;;12.73;78.76;101992.94;5045349;28;20360;-78
2022/04/26 11:05:17;;;;;;;10.32;2.80;;;;;;;12.79;77.65;101995.66;4989017;28;20063;-78
2022/04/26 11:07:48;;;;;;;5.68;2.30;;;;;;;12.71;75.71;101999.97;5033237;28;20458;-78
2022/04/26 11:10:20;;;;;;;8.90;2.72;;;;;;;12.56;76.85;102003.31;5000774;28;20355;-78
2022/04/26 11:12:51;;;;;;;3.33;2.42;;;;;;;12.67;77.85;101993.75;5041998;28;20049;-79
2022/04/26 11:15:22;;;;;;;5.75;2.33;;;;;;;12.76;77.24;102000.94;5009809;28;20158;-78
2022/04/26 11:17:53;;;;;;;3.53;2.50;;;;;;;12.74;75.44;102005.31;5034606;28;20038;-78
2022/04/26 11:20:22;;;;;;;;;;;;;;;12.61;73.32;102003.38;5004513;28;20064;-78
2022/04/26 11:22:55;;;;;;;2.47;2.03;;;;;;;12.71;75.91;101999.09;5009705;28;19943;-78
2022/04/26 11:28:17;;;;;;;8.48;2.40;;;;;;;12.57;75.22;102001.53;5025854;28;20048;-78
2022/04/26 11:30:48;;;;;;;3.97;2.35;;;;;;;12.63;76.24;102001.66;5037191;28;20403;-78
2022/04/26 11:33:24;;;;;;;7.55;2.40;;;;;;;12.76;76.23;101998.28;5039111;28;20362;-78
2022/04/26 11:35:57;;;;;;;6.72;2.85;;;;;;;12.97;76.36;101999.44;4994305;28;20174;-78
2022/04/26 11:38:27;;;;;;;6.32;2.20;;;;;;;13.18;76.43;102010.25;5007833;28;20045;-79
2022/04/26 11:41:01;;;;;;;3.88;2.33;;;;;;;13.19;74.81;101998.75;5010499;28;20525;-78
2022/04/26 11:43:31;;;;;;;3.55;2.28;;;;;;;13.22;75.38;102012.03;4991049;28;20516;-78
2022/04/26 11:46:02;;;;;;;8.13;2.92;;;;;;;13.18;74.22;102012.88;5031669;28;20040;-78
2022/04/26 11:48:34;;;;;;;6.57;2.78;;;;;;;13.20;75.12;102018.22;5042557;28;20394;-78
2022/04/26 11:51:06;;;;;;;6.20;2.50;;;;;;;13.31;75.12;102018.34;5005610;28;20056;-78
2022/04/26 11:53:37;;;;;;;9.23;2.70;;;;;;;13.28;73.88;102021.81;5049089;28;20045;-78
2022/04/26 11:56:06;;;;;;;;;;;;;;;13.30;73.28;102020.09;5020206;28;20041;-76
2022/04/26 11:58:40;;;;;;;5.25;2.47;;;;;;;13.37;74.83;102026.38;5038764;28;19943;-80
2022/04/26 12:01:16;;;;;;;9.63;2.80;;;;;;;13.43;73.38;102031.72;5034855;28;20533;-78
2022/04/26 12:03:52;;;;;;;2.65;2.22;;;;;;;13.33;73.75;102021.91;5038370;28;20346;-77
2022/04/26 12:06:26;;;;;;;6.32;2.35;;;;;;;13.22;73.75;102022.63;5046571;28;20051;-77
2022/04/26 12:09:01;;;;;;;4.53;2.30;;;;;;;13.23;73.89;102026.16;5013014;28;20037;-77
2022/04/26 12:11:35;;;;;;;6.88;3.13;;;;;;;13.32;74.95;102017.47;5011095;28;20052;-78
2022/04/26 12:14:13;;;;;;;3.83;2.05;;;;;;;13.53;75.09;102016.81;5021467;28;20061;-77
2022/04/26 12:16:43;;;;;;;7.03;2.70;;;;;;;13.58;72.87;102018.63;4996733;28;20037;-77
2022/04/26 12:19:11;;;;;;;6.57;2.50;;;;;;;13.41;72.67;102022.88;5025692;28;20055;-78
2022/04/26 12:21:58;;;;;;;6.15;2.47;;;;;;;13.36;71.69;102032.50;5021683;28;20474;-78
2022/04/26 12:24:30;;;;;;;3.35;2.35;;;;;;;13.25;72.52;102033.28;5035299;28;20041;-78
2022/04/26 12:27:00;;;;;;;4.28;2.53;;;;;;;13.21;72.48;102027.91;5014967;28;20053;-77
2022/04/26 12:29:41;;;;;;;7.45;2.28;;;;;;;13.13;69.65;102033.13;5025392;28;20393;-78
2022/04/26 12:32:16;;;;;;;5.25;2.35;;;;;;;12.93;72.00;102030.25;5035024;28;20393;-78
2022/04/26 12:34:50;;;;;;;6.85;2.30;;;;;;;12.63;70.67;102030.75;5057371;28;20685;-77
2022/04/26 12:37:26;;;;;;;5.75;2.08;;;;;;;12.43;72.57;102033.97;5016421;28;20033;-79
2022/04/26 12:40:06;;;;;;;4.45;2.33;;;;;;;12.41;72.28;102022.50;5018505;28;20053;-79
2022/04/26 12:42:38;;;;;;;6.30;2.95;;;;;;;12.55;72.63;102037.66;5005182;28;20036;-78
2022/04/26 12:45:12;;;;;;;3.65;2.08;;;;;;;12.64;72.34;102036.03;5018999;28;20045;-77
2022/04/26 12:50:28;;;;;;;5.05;2.00;;;;;;;12.66;73.73;102036.06;5034586;28;20508;-77
2022/04/26 12:53:05;;;;;;;5.72;2.95;;;;;;;12.61;71.53;102035.13;5038811;28;20029;-78
2022/04/26 12:55:36;;;;;;;3.67;1.90;;;;;;;12.73;73.38;102032.63;4972958;28;20040;-78
2022/04/26 12:58:05;;;;;;;;;;;;;;;12.67;72.00;102033.44;5035766;28;20044;-77
2022/04/26 13:00:42;;;;;;;6.22;2.35;;;;;;;12.51;71.66;102030.56;5034045;28;19921;-78
2022/04/26 13:03:13;;;;;;;6.20;2.20;;;;;;;12.39;73.17;102037.44;5039912;28;20057;-77
2022/04/26 13:05:47;;;;;;;5.82;2.22;;;;;;;12.36;73.96;102036.50;5043771;28;20537;-78
2022/04/26 13:08:17;;;;;;;6.70;2.55;;;;;;;12.40;73.80;102039.22;5054252;28;20075;-78
2022/04/26 13:10:49;;;;;;;;;;;;;;;12.46;70.83;102039.31;4999034;28;20179;-78
2022/04/26 13:13:18;;;;;;;3.10;2.00;;;;;;;12.33;71.67;102034.72;5046467;28;19928;-77
2022/04/26 13:15:46;;;;;;;6.30;2.38;;;;;;;12.28;71.27;102031.09;5014547;28;20573;-79
2022/04/26 13:18:18;;;;;;;4.93;2.28;;;;;;;12.40;72.11;102027.75;4961062;28;20056;-78
2022/04/26 13:20:47;;;;;;;8.32;2.53;;;;;;;12.38;71.87;102034.78;5050980;28;20430;-78
2022/04/26 13:23:16;;;;;;;7.28;2.50;;;;;;;12.29;72.36;102035.53;5018432;28;20497;-78
2022/04/26 13:25:45;;;;;;;5.45;2.42;;;;;;;12.26;72.54;102024.91;5000125;28;20036;-79
2022/04/26 13:28:14;;;;;;;3.15;2.40;;;;;;;12.39;72.76;102026.88;5016160;28;20049;-78
2022/04/26 13:30:43;;;;;;;4.55;2.17;;;;;;;12.53;72.31;102023.53;5017382;28;20040;-78
2022/04/26 13:33:11;;;;;;;9.77;2.92;;;;;;;12.44;72.22;102033.13;5025748;28;20044;-78
2022/04/26 13:35:47;;;;;;;4.18;2.45;;;;;;;12.27;70.92;102037.28;5010537;28;20237;-78
2022/04/26 13:38:16;;;;;;;4.88;2.40;;;;;;;12.15;71.64;102034.44;5007210;28;20037;-78
2022/04/26 13:40:46;;;;;;;7.00;3.00;;;;;;;12.06;71.85;102033.44;4998877;28;20052;-78
2022/04/26 13:43:14;;;;;;;9.48;2.85;;;;;;;11.94;72.19;102035.84;5017133;28;20295;-78
2022/04/26 13:46:04;;;;;;;8.18;2.63;;;;;;;11.92;72.00;102042.88;5014698;28;20056;-78
2022/04/26 13:48:32;;;;;;;5.00;2.63;;;;;;;11.89;71.21;102037.53;4986195;28;20510;-79
2022/04/26 13:51:01;;;;;;;3.72;2.10;;;;;;;11.82;71.99;102030.34;5004234;28;20446;-78
2022/04/26 13:53:30;;;;;;;7.55;2.80;;;;;;;11.76;72.98;102043.44;5017441;28;20041;-79
2022/04/26 13:56:00;;;;;;;4.85;2.13;;;;;;;11.75;72.81;102039.03;4980520;28;20506;-78
2022/04/26 13:58:29;;;;;;;7.22;2.58;;;;;;;11.71;72.50;102038.06;5034986;28;20044;-79
2022/04/26 14:00:58;;;;;;;3.83;2.58;;;;;;;11.75;73.32;102041.66;5028385;28;20251;-78
2022/04/26 14:03:30;;;;;;;4.43;2.35;;;;;;;11.87;73.08;102040.13;5028404;28;20496;-79
2022/04/26 14:05:58;;;;;;;6.72;2.63;;;;;;;11.90;72.88;102036.69;5010659;28;20053;-78
2022/04/26 14:08:28;;;;;;;3.63;2.38;;;;;;;11.92;74.19;102037.59;4982896;28;20053;-79
2022/04/26 14:10:57;;;;;;;4.57;2.90;;;;;;;11.93;73.83;102035.81;4992922;28;20553;-78
2022/04/26 14:13:26;;;;;;;4.78;1.92;;;;;;;11.87;72.27;102031.28;5027038;28;20037;-79
2022/04/26 14:24:17;;;;;;;4.53;2.53;;;;;;;12.36;70.62;102029.50;5023731;28;20068;-78
2022/04/26 14:26:45;;;;;;;4.53;2.10;;;;;;;12.51;69.87;102038.47;4965473;28;20055;-79
2022/04/26 14:29:14;;;;;;;5.50;2.20;;;;;;;12.54;69.83;102042.06;5005770;28;20065;-79
2022/04/26 14:31:45;;;;;;;5.38;2.10;;;;;;;12.42;68.49;102042.78;4982936;28;20579;-78
2022/04/26 14:34:14;;;;;;;3.67;2.40;;;;;;;12.31;67.93;102039.09;4988573;28;20371;-78
2022/04/26 14:36:45;;;;;;;5.05;2.03;;;;;;;12.36;68.25;102034.78;4989837;28;20073;-81
2022/04/26 14:39:23;;;;;;;4.05;2.33;;;;;;;12.46;68.38;102044.59;4984907;28;20043;-83
2022/04/26 14:41:51;;;;;;;4.20;2.22;;;;;;;12.53;69.04;102039.38;5000338;28;20563;-83
2022/04/26 14:44:20;;;;;;;5.00;2.65;;;;;;;12.58;68.78;102043.00;4972272;28;20038;-83
2022/04/26 14:46:48;;;;;;;3.58;2.20;;;;;;;12.55;70.33;102042.94;4990565;28;20061;-83
2022/04/26 14:49:17;;;;;;;3.50;2.33;;;;;;;12.50;70.74;102036.72;4987784;28;20046;-83
2022/04/26 14:51:46;;;;;;;6.53;2.38;;;;;;;12.35;70.72;102050.59;4976715;28;20054;-83
2022/04/26 14:54:14;;;;;;;3.63;1.90;;;;;;;12.29;70.58;102048.75;5042675;28;20502;-83
2022/04/26 14:56:43;;;;;;;3.90;2.20;;;;;;;12.22;71.24;102053.03;5017086;28;20399;-83
2022/04/26 14:59:17;;;;;;;3.58;2.28;;;;;;;11.97;71.61;102040.31;4986040;28;20536;-83
2022/04/26 15:01:50;;;;;;;2.40;2.05;;;;;;;11.80;72.97;102045.28;5020934;28;20053;-83
2022/04/26 15:04:21;;;;;;;5.05;2.05;;;;;;;11.67;73.91;102039.78;5004515;28;20121;-83
2022/04/26 15:06:49;;;;;;;7.43;2.38;;;;;;;11.65;74.18;102041.50;5052219;28;20037;-83
2022/04/26 15:17:42;;;;;;;3.63;2.30;;;;;;;11.58;71.15;102050.16;5051765;28;20045;-83
2022/04/26 15:20:12;;;;;;;5.77;2.00;;;;;;;11.44;71.58;102049.03;5044442;28;20269;-82
2022/04/26 15:22:41;;;;;;;2.60;2.13;;;;;;;11.24;71.53;102054.81;5031185;28;20525;-85
2022/04/26 15:25:10;;;;;;;5.95;2.35;;;;;;;11.22;72.27;102048.59;5003790;28;20828;-83
2022/04/26 15:27:40;;;;;;;5.03;2.30;;;;;;;11.20;72.85;102044.16;5023253;28;20048;-84
2022/04/26 15:30:11;;;;;;;5.05;2.78;;;;;;;11.24;73.05;102057.44;4976154;28;20598;-82
2022/04/26 15:32:39;;;;;;;3.60;2.63;;;;;;;11.24;72.41;102056.56;4993453;28;20094;-82
2022/04/26 15:35:09;;;;;;;4.20;2.20;;;;;;;11.21;72.54;102060.03;5031312;28;20258;-82
2022/04/26 15:37:38;;;;;;;6.85;2.53;;;;;;;11.20;72.51;102063.53;5030540;28;20041;-84
2022/04/26 15:40:07;;;;;;;7.00;2.33;;;;;;;11.16;71.84;102061.69;5004095;28;20257;-82
2022/04/26 15:42:35;;;;;;;4.80;2.20;;;;;;;11.04;72.07;102064.06;5031990;28;20042;-84
2022/04/26 15:45:04;;;;;;;7.68;2.47;;;;;;;10.93;71.66;102064.72;4967537;28;20092;-82
2022/04/26 15:47:35;;;;;;;5.20;2.28;;;;;;;10.83;71.88;102073.31;5017817;28;20050;-83
2022/04/26 15:50:05;;;;;;;5.90;2.28;;;;;;;10.88;72.56;102073.41;5027867;28;20520;-83
2022/04/26 15:52:34;;;;;;;5.63;2.13;;;;;;;10.90;72.35;102064.66;5014335;28;20044;-81